Time;durP1;ratioP1;P1;durP2;ratioP2;P2;SDS_P1;SDS_P2;PMS_P1;PMS_P2;Temp;Humidity;BMP_temperature;BMP_pressure;BME280_temperature;BME280_humidity;BME280_pressure;Samples;Min_cycle;Max_cycle;Signal;HPM_P1;HPM_P2
2022/05/07 00:00:17;;;;;;;3.00;2.20;;;;;;;;;;4971727;28;20192;-76
2022/05/07 00:02:43;;;;;;;2.60;2.23;;;;;;;;;;4972821;28;20259;-76
2022/05/07 00:05:09;;;;;;;2.47;2.20;;;;;;;;;;4972819;28;20720;-76
2022/05/07 00:07:35;;;;;;;3.53;2.10;;;;;;;;;;4971405;28;20211;-76
2022/05/07 00:10:01;;;;;;;4.30;2.50;;;;;;;;;;4971170;28;20271;-76
2022/05/07 00:12:28;;;;;;;2.10;1.90;;;;;;;;;;4969679;28;20219;-76
2022/05/07 00:15:00;;;;;;;2.63;2.20;;;;;;;;;;4971908;28;20253;-76
2022/05/07 00:20:11;;;;;;;5.20;2.30;;;;;;;;;;4971300;28;21083;-76
2022/05/07 00:22:37;;;;;;;2.57;2.20;;;;;;;;;;4969689;28;20204;-76
2022/05/07 00:25:03;;;;;;;5.47;2.60;;;;;;;;;;4972210;28;20188;-76
2022/05/07 00:27:30;;;;;;;4.07;2.77;;;;;;;;;;4966142;28;21096;-75
2022/05/07 00:29:56;;;;;;;5.70;2.57;;;;;;;;;;4969263;28;20254;-76
2022/05/07 00:32:22;;;;;;;3.10;2.60;;;;;;;;;;4971162;28;20200;-76
2022/05/07 00:34:48;;;;;;;3.23;2.70;;;;;;;;;;4970346;28;20212;-76
2022/05/07 00:37:14;;;;;;;3.93;2.60;;;;;;;;;;4970716;28;20200;-76
2022/05/07 00:39:40;;;;;;;3.20;2.77;;;;;;;;;;4971241;28;20205;-76
2022/05/07 00:42:07;;;;;;;3.67;2.67;;;;;;;;;;4965256;28;20303;-76
2022/05/07 00:44:34;;;;;;;3.27;2.97;;;;;;;;;;4972434;28;20172;-76
2022/05/07 00:47:12;;;;;;;2.80;2.60;;;;;;;;;;4972087;28;20196;-76
2022/05/07 00:49:38;;;;;;;2.90;2.60;;;;;;;;;;4971156;28;20804;-76
2022/05/07 00:52:05;;;;;;;4.60;2.50;;;;;;;;;;4969576;28;20187;-76
2022/05/07 00:54:32;;;;;;;3.00;2.60;;;;;;;;;;4970392;28;20295;-76
2022/05/07 00:56:58;;;;;;;4.27;3.00;;;;;;;;;;4971494;28;20368;-75
2022/05/07 00:59:24;;;;;;;5.47;2.70;;;;;;;;;;4969648;28;20188;-76
2022/05/07 01:01:50;;;;;;;6.67;2.70;;;;;;;;;;4967675;28;20199;-75
2022/05/07 01:04:17;;;;;;;4.13;2.70;;;;;;;;;;4969411;28;20568;-76
2022/05/07 01:06:43;;;;;;;5.43;2.90;;;;;;;;;;4966433;28;20248;-76
2022/05/07 01:09:12;;;;;;;3.13;2.83;;;;;;;;;;4968647;28;20223;-76
2022/05/07 01:11:41;;;;;;;5.20;3.10;;;;;;;;;;4973334;28;20741;-76
2022/05/07 01:14:07;;;;;;;4.97;3.17;;;;;;;;;;4971795;28;20224;-75
2022/05/07 01:16:35;;;;;;;3.40;2.83;;;;;;;;;;4974320;28;20291;-76
2022/05/07 01:19:02;;;;;;;3.23;2.93;;;;;;;;;;4966229;28;20279;-76
2022/05/07 01:21:28;;;;;;;4.63;3.10;;;;;;;;;;4966959;28;20594;-76
2022/05/07 01:23:56;;;;;;;4.70;3.13;;;;;;;;;;4952407;28;20188;-76
2022/05/07 01:26:26;;;;;;;5.00;2.87;;;;;;;;;;4971774;28;20216;-76
2022/05/07 01:29:03;;;;;;;4.43;3.40;;;;;;;;;;4974224;28;20191;-76
2022/05/07 01:31:31;;;;;;;3.73;3.30;;;;;;;;;;4973155;28;20325;-76
2022/05/07 01:33:57;;;;;;;3.57;3.27;;;;;;;;;;4972503;28;20219;-76
2022/05/07 01:36:25;;;;;;;3.70;3.10;;;;;;;;;;4953247;28;20351;-76
2022/05/07 01:38:58;;;;;;;5.07;3.50;;;;;;;;;;4968184;28;20184;-76
2022/05/07 01:41:24;;;;;;;3.40;3.00;;;;;;;;;;4972686;28;20538;-76
2022/05/07 01:43:53;;;;;;;3.80;3.30;;;;;;;;;;4959537;28;20259;-76
2022/05/07 01:49:08;;;;;;;4.80;3.60;;;;;;;;;;4963988;28;20196;-76
2022/05/07 01:51:34;;;;;;;5.13;3.73;;;;;;;;;;4968006;28;20278;-76
2022/05/07 01:54:01;;;;;;;5.87;3.73;;;;;;;;;;4969059;28;20224;-76
2022/05/07 01:56:28;;;;;;;4.50;3.80;;;;;;;;;;4968900;28;20473;-76
2022/05/07 01:58:54;;;;;;;4.50;3.70;;;;;;;;;;4968527;28;20540;-76
2022/05/07 02:01:21;;;;;;;4.83;3.00;;;;;;;;;;4974388;28;20955;-76
2022/05/07 02:03:47;;;;;;;3.40;2.90;;;;;;;;;;4969458;28;20572;-76
2022/05/07 02:06:18;;;;;;;5.60;3.20;;;;;;;;;;4970520;28;20340;-76
2022/05/07 02:08:44;;;;;;;3.57;3.07;;;;;;;;;;4966392;28;20180;-76
2022/05/07 02:11:18;;;;;;;3.87;3.17;;;;;;;;;;4967393;28;20707;-76
2022/05/07 02:13:44;;;;;;;4.23;3.30;;;;;;;;;;4967562;28;20295;-76
2022/05/07 02:16:12;;;;;;;5.20;3.30;;;;;;;;;;4966010;28;20216;-76
2022/05/07 02:18:42;;;;;;;3.47;3.17;;;;;;;;;;4962073;28;20251;-76
2022/05/07 02:21:08;;;;;;;5.33;3.73;;;;;;;;;;4966913;28;20648;-76
2022/05/07 02:23:35;;;;;;;5.07;3.73;;;;;;;;;;4983162;28;20622;-76
2022/05/07 02:26:01;;;;;;;4.27;3.70;;;;;;;;;;4966357;28;20290;-76
2022/05/07 02:28:27;;;;;;;5.07;4.17;;;;;;;;;;4968466;28;20200;-76
2022/05/07 02:30:54;;;;;;;5.47;4.33;;;;;;;;;;4966251;28;20188;-76
2022/05/07 02:33:20;;;;;;;8.60;4.17;;;;;;;;;;4966991;28;20212;-76
2022/05/07 02:35:47;;;;;;;5.27;3.90;;;;;;;;;;4969327;28;20212;-76
2022/05/07 02:38:13;;;;;;;5.10;4.00;;;;;;;;;;4969526;28;20181;-76
2022/05/07 02:43:32;;;;;;;5.53;4.10;;;;;;;;;;4970907;28;20823;-76
2022/05/07 02:45:58;;;;;;;4.83;4.30;;;;;;;;;;4972553;28;20223;-76
2022/05/07 02:48:25;;;;;;;4.00;3.60;;;;;;;;;;4974931;28;20188;-76
2022/05/07 02:50:51;;;;;;;5.47;4.80;;;;;;;;;;4975394;28;20188;-76
2022/05/07 02:53:17;;;;;;;5.37;4.37;;;;;;;;;;4973536;28;20247;-76
2022/05/07 02:55:45;;;;;;;4.53;4.13;;;;;;;;;;4958462;28;20187;-76
2022/05/07 02:58:11;;;;;;;5.37;4.40;;;;;;;;;;4964311;28;20191;-76
2022/05/07 03:00:41;;;;;;;5.63;4.33;;;;;;;;;;4972945;28;20259;-76
2022/05/07 03:03:07;;;;;;;5.13;4.40;;;;;;;;;;4975935;28;20188;-76
2022/05/07 03:05:36;;;;;;;5.53;3.77;;;;;;;;;;4974365;28;20251;-76
2022/05/07 03:08:03;;;;;;;4.10;3.70;;;;;;;;;;4969862;28;21582;-76
2022/05/07 03:10:33;;;;;;;4.77;4.20;;;;;;;;;;4959097;28;20177;-76
2022/05/07 03:13:01;;;;;;;5.60;4.17;;;;;;;;;;4968987;28;20192;-75
2022/05/07 03:15:28;;;;;;;5.13;4.10;;;;;;;;;;4972496;28;20196;-74
2022/05/07 03:17:54;;;;;;;5.10;4.20;;;;;;;;;;4972751;28;20183;-77
2022/05/07 03:20:21;;;;;;;6.33;4.70;;;;;;;;;;4973056;28;20661;-77
2022/05/07 03:22:48;;;;;;;5.30;4.80;;;;;;;;;;4971965;28;20177;-77
2022/05/07 03:25:15;;;;;;;6.23;4.63;;;;;;;;;;4973304;28;20184;-77
2022/05/07 03:27:41;;;;;;;4.97;4.50;;;;;;;;;;4974526;28;20196;-76
2022/05/07 03:30:13;;;;;;;5.50;4.40;;;;;;;;;;4973111;28;20188;-77
2022/05/07 03:32:57;;;;;;;4.83;4.33;;;;;;;;;;4973480;28;20200;-77
2022/05/07 03:35:24;;;;;;;4.87;3.63;;;;;;;;;;4966980;28;20197;-77
2022/05/07 03:37:51;;;;;;;4.30;3.90;;;;;;;;;;4973342;28;20247;-77
2022/05/07 03:40:17;;;;;;;5.07;3.90;;;;;;;;;;4952315;28;20231;-77
2022/05/07 03:42:43;;;;;;;4.67;4.27;;;;;;;;;;4973546;28;20529;-77
2022/05/07 03:45:10;;;;;;;4.80;4.27;;;;;;;;;;4957731;28;20188;-77
2022/05/07 03:47:39;;;;;;;5.30;4.50;;;;;;;;;;4972662;28;20208;-77
2022/05/07 03:50:06;;;;;;;6.93;4.37;;;;;;;;;;4971427;28;20215;-77
2022/05/07 03:55:19;;;;;;;4.63;4.20;;;;;;;;;;4974038;28;20208;-77
2022/05/07 03:57:46;;;;;;;5.10;4.60;;;;;;;;;;4972851;28;20212;-77
2022/05/07 04:00:13;;;;;;;4.70;4.30;;;;;;;;;;4956753;28;20185;-77
2022/05/07 04:02:47;;;;;;;5.30;4.07;;;;;;;;;;4966239;28;20667;-76
2022/05/07 04:05:30;;;;;;;5.33;4.20;;;;;;;;;;4971540;28;20188;-77
2022/05/07 04:08:05;;;;;;;5.23;4.30;;;;;;;;;;4973356;28;20188;-77
2022/05/07 04:10:32;;;;;;;6.87;4.47;;;;;;;;;;4970241;28;20193;-77
2022/05/07 04:12:59;;;;;;;4.10;3.70;;;;;;;;;;4972895;28;20239;-76
2022/05/07 04:15:27;;;;;;;4.97;4.00;;;;;;;;;;4972889;28;20200;-76
2022/05/07 04:17:58;;;;;;;5.67;4.30;;;;;;;;;;4969174;28;20184;-77
2022/05/07 04:20:25;;;;;;;5.03;4.30;;;;;;;;;;4970306;28;20185;-76
2022/05/07 04:22:58;;;;;;;5.83;4.30;;;;;;;;;;4970793;28;20185;-77
2022/05/07 04:25:25;;;;;;;4.57;4.17;;;;;;;;;;4955529;28;20200;-77
2022/05/07 04:27:53;;;;;;;5.10;4.03;;;;;;;;;;4969823;28;20201;-77
2022/05/07 04:30:20;;;;;;;6.40;4.63;;;;;;;;;;4972714;28;20208;-77
2022/05/07 04:32:49;;;;;;;4.97;4.43;;;;;;;;;;4972152;28;20196;-76
2022/05/07 04:35:15;;;;;;;4.73;4.17;;;;;;;;;;4955996;28;20299;-77
2022/05/07 04:37:42;;;;;;;4.40;4.00;;;;;;;;;;4955109;28;20727;-76
2022/05/07 04:40:09;;;;;;;4.50;4.10;;;;;;;;;;4970603;28;20195;-77
2022/05/07 04:42:36;;;;;;;4.50;4.10;;;;;;;;;;4968523;28;20223;-77
2022/05/07 04:45:05;;;;;;;9.97;5.13;;;;;;;;;;4969647;28;20199;-77
2022/05/07 04:47:46;;;;;;;5.00;4.50;;;;;;;;;;4955341;28;20216;-77
2022/05/07 04:50:22;;;;;;;5.13;4.17;;;;;;;;;;4966436;28;20199;-77
2022/05/07 04:52:52;;;;;;;4.30;3.90;;;;;;;;;;4971328;28;20231;-77
2022/05/07 04:55:19;;;;;;;6.93;4.40;;;;;;;;;;4971591;28;20199;-76
2022/05/07 04:57:52;;;;;;;5.47;3.97;;;;;;;;;;4970853;28;20562;-77
2022/05/07 05:00:22;;;;;;;5.63;5.00;;;;;;;;;;4970012;28;20716;-77
2022/05/07 05:02:56;;;;;;;6.30;5.70;;;;;;;;;;4953107;28;20180;-77
2022/05/07 05:05:27;;;;;;;12.13;10.17;;;;;;;;;;4964613;28;20200;-77
2022/05/07 05:08:07;;;;;;;20.63;18.63;;;;;;;;;;4966815;28;20207;-76
2022/05/07 05:10:34;;;;;;;10.60;9.57;;;;;;;;;;4969851;28;20235;-77
2022/05/07 05:13:00;;;;;;;7.90;7.15;;;;;;;;;;4971237;28;20176;-77
2022/05/07 05:15:27;;;;;;;6.47;5.87;;;;;;;;;;4971743;28;20200;-77
2022/05/07 05:17:59;;;;;;;6.67;5.00;;;;;;;;;;4971130;28;20184;-77
2022/05/07 05:20:26;;;;;;;5.77;4.57;;;;;;;;;;4967312;28;20243;-77
2022/05/07 05:22:58;;;;;;;5.37;4.80;;;;;;;;;;4969596;28;20592;-77
2022/05/07 05:25:34;;;;;;;9.93;4.87;;;;;;;;;;4970471;28;20207;-76
2022/05/07 05:28:02;;;;;;;4.97;4.47;;;;;;;;;;4971018;28;20188;-80
2022/05/07 05:30:28;;;;;;;4.97;4.50;;;;;;;;;;4967777;28;20186;-81
2022/05/07 05:33:02;;;;;;;5.37;4.83;;;;;;;;;;4952353;29;20225;-82
2022/05/07 05:35:29;;;;;;;6.83;4.70;;;;;;;;;;4968834;28;20176;-82
2022/05/07 05:37:58;;;;;;;5.40;4.47;;;;;;;;;;4959060;28;20188;-81
2022/05/07 05:40:25;;;;;;;5.10;4.60;;;;;;;;;;4954674;28;20272;-82
2022/05/07 05:42:59;;;;;;;6.33;4.90;;;;;;;;;;4971845;28;20187;-81
2022/05/07 05:45:27;;;;;;;5.93;4.93;;;;;;;;;;4968969;28;20181;-81
2022/05/07 05:47:54;;;;;;;5.47;4.80;;;;;;;;;;4953772;28;20232;-81
2022/05/07 05:50:20;;;;;;;6.77;4.83;;;;;;;;;;4978906;28;20207;-82
2022/05/07 05:52:47;;;;;;;7.83;5.27;;;;;;;;;;4971297;28;20255;-81
2022/05/07 05:55:13;;;;;;;8.37;4.97;;;;;;;;;;4973750;28;20251;-81
2022/05/07 05:57:41;;;;;;;5.47;4.93;;;;;;;;;;4973676;28;20200;-81
2022/05/07 06:00:07;;;;;;;8.27;4.57;;;;;;;;;;4972434;28;20184;-81
2022/05/07 06:02:39;;;;;;;7.47;4.70;;;;;;;;;;4974051;28;20639;-81
2022/05/07 06:05:08;;;;;;;8.63;4.67;;;;;;;;;;4975523;28;20640;-81
2022/05/07 06:07:39;;;;;;;7.63;4.80;;;;;;;;;;4973753;28;20225;-81
2022/05/07 06:10:05;;;;;;;9.93;4.80;;;;;;;;;;4976583;28;20239;-81
2022/05/07 06:12:33;;;;;;;7.23;5.00;;;;;;;;;;4964260;28;20216;-81
2022/05/07 06:14:59;;;;;;;7.77;5.53;;;;;;;;;;4980416;28;20285;-81
2022/05/07 06:17:29;;;;;;;6.83;5.30;;;;;;;;;;4990393;28;20254;-81
2022/05/07 06:19:56;;;;;;;6.30;4.90;;;;;;;;;;4976969;28;20195;-81
2022/05/07 06:22:22;;;;;;;5.53;4.60;;;;;;;;;;4976090;28;20184;-79
2022/05/07 06:27:52;;;;;;;5.30;4.70;;;;;;;;;;4968465;28;20288;-76
2022/05/07 06:30:28;;;;;;;5.67;5.07;;;;;;;;;;4972791;28;20176;-78
2022/05/07 06:32:56;;;;;;;5.97;5.17;;;;;;;;;;4972832;28;20207;-78
2022/05/07 06:35:27;;;;;;;9.63;5.47;;;;;;;;;;4971161;28;20185;-79
2022/05/07 06:37:59;;;;;;;8.53;4.83;;;;;;;;;;4974829;28;20267;-80
2022/05/07 06:40:27;;;;;;;5.43;4.50;;;;;;;;;;4974289;28;20185;-79
2022/05/07 06:43:02;;;;;;;5.40;4.67;;;;;;;;;;4970903;28;20600;-80
2022/05/07 06:45:43;;;;;;;5.20;4.57;;;;;;;;;;4968491;28;20263;-80
2022/05/07 06:48:11;;;;;;;8.33;5.37;;;;;;;;;;4976439;28;20183;-80
2022/05/07 06:50:40;;;;;;;6.90;5.03;;;;;;;;;;4959621;28;20240;-79
2022/05/07 06:53:08;;;;;;;5.43;4.90;;;;;;;;;;4974065;28;20168;-80
2022/05/07 06:55:54;;;;;;;7.87;4.70;;;;;;;;;;4975178;28;20185;-80
2022/05/07 06:58:20;;;;;;;5.70;5.13;;;;;;;;;;4972113;28;20188;-77
2022/05/07 07:00:46;;;;;;;6.27;4.80;;;;;;;;;;4974472;28;20748;-77
2022/05/07 07:03:12;;;;;;;9.37;5.60;;;;;;;;;;4974061;28;20189;-77
2022/05/07 07:05:38;;;;;;;8.37;5.63;;;;;;;;;;4974929;28;20707;-77
2022/05/07 07:08:05;;;;;;;5.73;5.23;;;;;;;;;;4976875;28;20186;-78
2022/05/07 07:10:31;;;;;;;7.37;5.43;;;;;;;;;;4974189;28;20204;-80
2022/05/07 07:12:57;;;;;;;7.37;5.60;;;;;;;;;;4973161;28;20288;-80
2022/05/07 07:15:23;;;;;;;7.47;5.43;;;;;;;;;;4974211;28;20742;-78
2022/05/07 07:17:51;;;;;;;5.43;4.93;;;;;;;;;;4975310;28;20243;-80
2022/05/07 07:20:17;;;;;;;5.40;4.90;;;;;;;;;;4975121;28;20292;-81
2022/05/07 07:22:46;;;;;;;7.27;5.47;;;;;;;;;;4975927;28;20684;-78
2022/05/07 07:25:12;;;;;;;5.80;5.10;;;;;;;;;;4972236;28;20189;-78
2022/05/07 07:27:38;;;;;;;5.57;5.07;;;;;;;;;;4972181;28;20208;-78
2022/05/07 07:30:05;;;;;;;5.80;4.83;;;;;;;;;;4972774;28;20230;-79
2022/05/07 07:32:31;;;;;;;6.57;4.90;;;;;;;;;;4974551;28;20239;-79
2022/05/07 07:34:57;;;;;;;5.30;4.83;;;;;;;;;;4974048;28;20209;-79
2022/05/07 07:37:25;;;;;;;5.97;5.23;;;;;;;;;;4957131;28;20216;-79
2022/05/07 07:39:51;;;;;;;5.40;4.90;;;;;;;;;;4972788;28;20173;-78
2022/05/07 07:42:20;;;;;;;5.23;4.60;;;;;;;;;;4973389;28;20287;-80
2022/05/07 07:47:56;;;;;;;5.63;4.67;;;;;;;;;;4974605;28;20203;-78
2022/05/07 07:50:18;;;;;;;5.40;4.50;;;;;;;;;;4971364;28;20220;-78
2022/05/07 07:52:44;;;;;;;5.63;4.50;;;;;;;;;;4974554;28;20227;-77
2022/05/07 07:55:10;;;;;;;6.80;4.50;;;;;;;;;;4974298;28;20559;-75
2022/05/07 07:57:36;;;;;;;5.80;4.73;;;;;;;;;;4970408;28;20256;-75
2022/05/07 08:00:03;;;;;;;5.07;4.57;;;;;;;;;;4969985;28;20212;-75
2022/05/07 08:02:58;;;;;;;7.33;4.80;;;;;;;;;;4973060;28;20518;-76
2022/05/07 08:05:25;;;;;;;6.97;4.57;;;;;;;;;;4972661;28;20656;-76
2022/05/07 08:13:23;;;;;;;5.13;4.43;;;;;;;;;;4973467;28;20208;-75
2022/05/07 08:16:15;;;;;;;5.03;4.53;;;;;;;;;;4963835;28;20239;-75
2022/05/07 08:18:42;;;;;;;4.80;4.40;;;;;;;;;;4971855;28;20292;-75
2022/05/07 08:21:09;;;;;;;5.00;4.50;;;;;;;;;;4967892;28;20263;-75
2022/05/07 08:23:36;;;;;;;4.80;4.30;;;;;;;;;;4973447;28;20211;-75
2022/05/07 08:26:04;;;;;;;5.13;4.57;;;;;;;;;;4972769;28;20295;-75
2022/05/07 08:28:33;;;;;;;5.70;4.63;;;;;;;;;;4969734;28;20244;-75
2022/05/07 08:31:00;;;;;;;5.67;4.50;;;;;;;;;;4966498;28;20197;-75
2022/05/07 08:33:27;;;;;;;5.40;4.40;;;;;;;;;;4973627;28;20215;-75
2022/05/07 08:35:53;;;;;;;7.77;4.90;;;;;;;;;;4972692;28;20676;-75
2022/05/07 08:38:22;;;;;;;4.93;4.43;;;;;;;;;;4964011;28;20830;-75
2022/05/07 08:40:48;;;;;;;5.47;4.50;;;;;;;;;;4971793;28;20203;-75
2022/05/07 08:43:16;;;;;;;5.27;4.50;;;;;;;;;;4971548;28;20180;-75
2022/05/07 08:45:44;;;;;;;5.23;3.77;;;;;;;;;;4967523;28;20231;-78
2022/05/07 08:48:10;;;;;;;3.80;3.40;;;;;;;;;;4973369;28;20181;-78
2022/05/07 08:50:38;;;;;;;4.30;3.90;;;;;;;;;;4962427;28;20432;-77
2022/05/07 08:53:05;;;;;;;6.00;4.50;;;;;;;;;;4968109;28;20177;-78
2022/05/07 08:55:31;;;;;;;5.33;3.97;;;;;;;;;;4970666;28;20184;-75
2022/05/07 08:57:58;;;;;;;4.03;3.53;;;;;;;;;;4971863;28;20192;-75
2022/05/07 09:00:31;;;;;;;4.50;4.10;;;;;;;;;;5067760;28;20961;-76
2022/05/07 09:02:58;;;;;;;4.50;4.00;;;;;;;;;;5065509;28;20664;-76
2022/05/07 09:05:39;;;;;;;4.50;3.83;;;;;;;;;;5059827;28;20228;-77
2022/05/07 09:08:07;;;;;;;3.50;3.20;;;;;;;;;;5029304;28;20221;-77
2022/05/07 09:10:34;;;;;;;4.93;3.10;;;;;;;;;;5036310;28;20657;-76
2022/05/07 09:13:13;;;;;;;4.20;3.30;;;;;;;;;;5028161;28;20178;-77
2022/05/07 09:15:49;;;;;;;5.33;3.10;;;;;;;;;;5032127;28;20189;-76
2022/05/07 09:18:16;;;;;;;3.67;3.20;;;;;;;;;;5046029;28;20330;-76
2022/05/07 09:20:43;;;;;;;4.17;3.10;;;;;;;;;;5043524;28;20185;-77
2022/05/07 09:23:12;;;;;;;4.83;3.47;;;;;;;;;;5041939;28;20189;-76
2022/05/07 09:25:46;;;;;;;5.00;3.60;;;;;;;;;;5045791;28;20214;-76
2022/05/07 09:28:12;;;;;;;4.77;3.10;;;;;;;;;;5028919;28;20178;-77
2022/05/07 09:30:42;;;;;;;4.60;3.40;;;;;;;;;;5027348;28;20191;-77
2022/05/07 09:33:08;;;;;;;5.67;3.40;;;;;;;;;;5027266;28;20761;-77
2022/05/07 09:35:47;;;;;;;5.53;3.40;;;;;;;;;;5047008;28;20202;-77
2022/05/07 09:38:14;;;;;;;3.97;3.40;;;;;;;;;;5039461;28;20192;-77
2022/05/07 09:40:41;;;;;;;3.53;2.90;;;;;;;;;;5035774;28;20185;-77
2022/05/07 09:43:09;;;;;;;3.30;2.90;;;;;;;;;;5036853;28;20185;-77
2022/05/07 09:45:37;;;;;;;4.93;3.20;;;;;;;;;;5046701;28;20209;-78
2022/05/07 09:48:04;;;;;;;5.50;2.83;;;;;;;;;;5046725;28;20188;-79
2022/05/07 09:58:39;;;;;;;2.53;2.13;;;;;;;;;;5046524;28;20217;-77
2022/05/07 10:01:28;;;;;;;20.67;4.97;;;;;;;;;;5031613;28;20650;-81
2022/05/07 10:04:04;;;;;;;7.87;3.10;;;;;;;;;;5024459;28;20199;-82
2022/05/07 10:06:49;;;;;;;5.20;2.60;;;;;;;;;;5041746;28;20201;-81
2022/05/07 10:09:34;;;;;;;3.17;2.20;;;;;;;;;;5046255;28;20544;-80
2022/05/07 10:12:01;;;;;;;3.30;2.20;;;;;;;;;;5021440;28;20186;-81
2022/05/07 10:14:28;;;;;;;3.03;2.40;;;;;;;;;;5027558;28;20565;-81
2022/05/07 10:17:11;;;;;;;4.50;2.27;;;;;;;;;;5023631;28;20207;-80
2022/05/07 10:19:39;;;;;;;3.83;2.23;;;;;;;;;;5030758;28;20249;-81
2022/05/07 10:22:16;;;;;;;5.60;2.20;;;;;;;;;;5029217;28;20548;-80
2022/05/07 10:24:43;;;;;;;2.57;1.80;;;;;;;;;;5037479;28;20192;-79
2022/05/07 10:27:22;;;;;;;2.87;2.13;;;;;;;;;;5037162;28;20202;-78
2022/05/07 10:29:48;;;;;;;2.90;1.90;;;;;;;;;;5030820;28;20186;-78
2022/05/07 10:32:18;;;;;;;2.80;2.30;;;;;;;;;;5034023;28;20181;-81
2022/05/07 10:34:52;;;;;;;2.27;2.07;;;;;;;;;;5030486;28;20187;-80
2022/05/07 10:37:19;;;;;;;3.47;2.10;;;;;;;;;;5017985;28;20261;-84
2022/05/07 10:39:55;;;;;;;4.37;2.17;;;;;;;;;;5025084;28;20218;-81
2022/05/07 10:42:22;;;;;;;4.17;1.80;;;;;;;;;;5026764;28;20312;-75
2022/05/07 10:44:49;;;;;;;3.67;2.10;;;;;;;;;;5024342;28;20182;-76
2022/05/07 10:47:18;;;;;;;4.00;1.80;;;;;;;;;;5036522;28;20194;-76
2022/05/07 10:49:51;;;;;;;2.53;1.90;;;;;;;;;;5026365;28;20277;-76
2022/05/07 10:52:27;;;;;;;1.80;1.60;;;;;;;;;;5014964;28;20187;-77
2022/05/07 10:55:03;;;;;;;3.07;1.50;;;;;;;;;;5023636;28;20174;-77
2022/05/07 10:57:57;;;;;;;3.23;1.83;;;;;;;;;;5023677;28;20206;-75
2022/05/07 11:00:23;;;;;;;2.73;2.03;;;;;;;;;;5021427;28;20282;-75
2022/05/07 11:02:50;;;;;;;3.57;2.00;;;;;;;;;;5031430;28;20182;-75
2022/05/07 11:05:17;;;;;;;3.93;1.93;;;;;;;;;;5032913;28;20238;-77
2022/05/07 11:07:44;;;;;;;3.00;1.83;;;;;;;;;;5031609;28;20199;-74
2022/05/07 11:10:13;;;;;;;2.27;1.80;;;;;;;;;;5028786;28;20249;-77
2022/05/07 11:12:39;;;;;;;3.80;1.77;;;;;;;;;;5024663;28;20178;-75
2022/05/07 11:15:08;;;;;;;5.50;2.40;;;;;;;;;;5020349;28;20200;-75
2022/05/07 11:17:36;;;;;;;2.63;2.37;;;;;;;;;;5025908;28;20202;-74
2022/05/07 11:20:05;;;;;;;3.87;2.00;;;;;;;;;;5026667;28;20255;-74
2022/05/07 11:22:31;;;;;;;2.43;1.90;;;;;;;;;;5020473;28;20234;-75
2022/05/07 11:25:02;;;;;;;2.60;1.73;;;;;;;;;;5023426;28;20190;-75
2022/05/07 11:27:33;;;;;;;2.17;1.70;;;;;;;;;;5020061;28;20298;-76
2022/05/07 11:30:05;;;;;;;1.87;1.70;;;;;;;;;;5016801;28;20191;-75
2022/05/07 11:32:38;;;;;;;1.87;1.60;;;;;;;;;;5021380;28;20185;-75
2022/05/07 11:35:04;;;;;;;1.87;1.50;;;;;;;;;;5019077;28;20198;-76
2022/05/07 11:37:37;;;;;;;2.03;1.60;;;;;;;;;;5019282;28;20207;-76
2022/05/07 11:40:04;;;;;;;3.93;1.73;;;;;;;;;;5021702;28;20284;-76
2022/05/07 11:42:30;;;;;;;2.43;1.60;;;;;;;;;;5023950;28;20179;-76
2022/05/07 11:47:54;;;;;;;3.57;2.03;;;;;;;;;;5026578;28;20689;-75
2022/05/07 11:50:26;;;;;;;1.70;1.60;;;;;;;;;;5028201;28;20242;-75
2022/05/07 11:52:54;;;;;;;3.13;1.67;;;;;;;;;;5026984;28;20231;-75
2022/05/07 11:55:24;;;;;;;3.47;1.50;;;;;;;;;;5029728;28;20178;-76
2022/05/07 11:57:50;;;;;;;2.87;1.80;;;;;;;;;;5037237;28;20202;-76
2022/05/07 12:00:24;;;;;;;3.10;1.80;;;;;;;;;;5021866;28;20732;-76
2022/05/07 12:02:57;;;;;;;2.97;1.90;;;;;;;;;;5014587;28;20193;-76
2022/05/07 12:05:24;;;;;;;2.10;1.60;;;;;;;;;;5018649;28;20218;-76
2022/05/07 12:07:51;;;;;;;1.90;1.60;;;;;;;;;;5021470;28;20295;-76
2022/05/07 12:10:18;;;;;;;2.53;1.57;;;;;;;;;;5023806;28;20197;-76
2022/05/07 12:12:45;;;;;;;3.30;1.70;;;;;;;;;;5021346;28;20211;-76
2022/05/07 12:15:11;;;;;;;2.13;1.63;;;;;;;;;;5022035;28;20188;-76
2022/05/07 12:17:53;;;;;;;2.80;1.50;;;;;;;;;;5025628;28;21524;-77
2022/05/07 12:20:25;;;;;;;1.97;1.47;;;;;;;;;;5028006;28;20213;-77
2022/05/07 12:31:08;;;;;;;1.80;1.70;;;;;;;;;;5024682;28;20241;-75
2022/05/07 12:33:37;;;;;;;3.37;1.60;;;;;;;;;;5022259;28;20223;-75
2022/05/07 12:36:04;;;;;;;2.17;1.90;;;;;;;;;;5020979;28;20264;-75
2022/05/07 12:38:50;;;;;;;2.10;1.90;;;;;;;;;;5012694;28;20214;-75
2022/05/07 12:41:16;;;;;;;1.93;1.70;;;;;;;;;;5025166;28;20250;-78
2022/05/07 12:43:43;;;;;;;2.67;1.70;;;;;;;;;;5028608;28;20182;-75
2022/05/07 12:46:09;;;;;;;2.70;1.70;;;;;;;;;;5019151;28;20210;-75
2022/05/07 12:48:36;;;;;;;4.47;1.60;;;;;;;;;;5025107;28;20179;-75
2022/05/07 12:51:02;;;;;;;2.30;1.60;;;;;;;;;;5026870;28;20251;-75
2022/05/07 12:53:28;;;;;;;2.17;1.70;;;;;;;;;;5021277;28;20279;-75
2022/05/07 12:55:54;;;;;;;3.07;1.90;;;;;;;;;;5026927;28;20296;-75
2022/05/07 12:58:20;;;;;;;2.13;1.80;;;;;;;;;;5025404;28;20718;-75
2022/05/07 13:00:47;;;;;;;3.10;2.00;;;;;;;;;;5020323;28;20190;-77
2022/05/07 13:03:13;;;;;;;2.80;2.10;;;;;;;;;;5018639;28;20181;-76
2022/05/07 13:05:39;;;;;;;2.27;1.90;;;;;;;;;;5024133;28;20573;-77
2022/05/07 13:08:06;;;;;;;2.67;1.83;;;;;;;;;;5024419;28;20687;-75
2022/05/07 13:10:33;;;;;;;3.60;1.80;;;;;;;;;;5023308;28;20179;-74
2022/05/07 13:13:00;;;;;;;2.53;1.80;;;;;;;;;;5014457;28;20183;-75
2022/05/07 13:15:28;;;;;;;2.40;1.80;;;;;;;;;;5024490;28;20677;-74
2022/05/07 13:17:59;;;;;;;2.03;1.70;;;;;;;;;;5024877;28;20595;-75
2022/05/07 13:20:26;;;;;;;7.00;2.00;;;;;;;;;;5026843;28;20219;-75
2022/05/07 13:22:52;;;;;;;3.93;1.90;;;;;;;;;;5025033;28;20248;-75
2022/05/07 13:25:39;;;;;;;1.77;1.57;;;;;;;;;;5024084;28;20277;-75
2022/05/07 13:28:06;;;;;;;2.87;1.83;;;;;;;;;;5026099;28;20179;-75
2022/05/07 13:30:33;;;;;;;1.87;1.50;;;;;;;;;;5024415;28;20268;-75
2022/05/07 13:32:59;;;;;;;3.47;2.10;;;;;;;;;;5023893;28;20186;-75
2022/05/07 13:35:26;;;;;;;3.23;2.00;;;;;;;;;;5022749;28;20214;-75
2022/05/07 13:37:52;;;;;;;2.23;1.90;;;;;;;;;;5027056;28;20216;-76
2022/05/07 13:40:18;;;;;;;2.40;1.60;;;;;;;;;;5025755;28;20697;-77
2022/05/07 13:42:44;;;;;;;1.93;1.60;;;;;;;;;;5023049;28;20193;-76
2022/05/07 13:45:11;;;;;;;3.23;1.57;;;;;;;;;;5025818;28;20206;-76
2022/05/07 13:47:41;;;;;;;2.67;1.50;;;;;;;;;;5026475;28;20247;-76
2022/05/07 13:50:08;;;;;;;2.80;2.07;;;;;;;;;;5030686;28;20271;-76
2022/05/07 13:52:37;;;;;;;3.20;1.60;;;;;;;;;;5031956;28;20185;-76
2022/05/07 13:55:04;;;;;;;2.13;1.57;;;;;;;;;;5024735;28;20195;-76
2022/05/07 13:57:30;;;;;;;2.83;1.70;;;;;;;;;;5027630;28;20241;-75
2022/05/07 13:59:57;;;;;;;3.20;1.70;;;;;;;;;;5029097;28;20212;-75
2022/05/07 14:02:23;;;;;;;3.53;2.10;;;;;;;;;;5033754;28;20245;-75
2022/05/07 14:04:50;;;;;;;3.10;1.67;;;;;;;;;;5026936;28;20685;-75
2022/05/07 14:07:17;;;;;;;1.70;1.60;;;;;;;;;;5026821;28;20224;-75
2022/05/07 14:09:47;;;;;;;2.07;1.80;;;;;;;;;;5022800;28;20235;-75
2022/05/07 14:12:17;;;;;;;2.20;1.70;;;;;;;;;;5011803;28;20196;-76
2022/05/07 14:14:44;;;;;;;2.33;1.70;;;;;;;;;;5024534;28;20194;-76
2022/05/07 14:17:11;;;;;;;2.57;1.93;;;;;;;;;;5026115;28;20260;-76
2022/05/07 14:19:37;;;;;;;3.17;2.00;;;;;;;;;;5019758;28;20711;-75
2022/05/07 14:22:04;;;;;;;4.37;1.80;;;;;;;;;;5017964;28;20669;-77
2022/05/07 14:24:30;;;;;;;3.57;1.80;;;;;;;;;;5028777;28;20180;-76
2022/05/07 14:26:57;;;;;;;1.70;1.60;;;;;;;;;;5020530;28;20217;-75
2022/05/07 14:29:23;;;;;;;4.53;2.00;;;;;;;;;;5027542;28;20195;-76
2022/05/07 14:31:53;;;;;;;4.53;2.13;;;;;;;;;;5029586;28;20275;-78
2022/05/07 14:34:20;;;;;;;3.53;1.80;;;;;;;;;;5027806;28;20677;-79
2022/05/07 14:36:47;;;;;;;3.63;1.80;;;;;;;;;;5012065;28;20210;-78
2022/05/07 14:39:13;;;;;;;1.77;1.67;;;;;;;;;;5019070;28;20201;-79
2022/05/07 14:41:39;;;;;;;2.30;1.80;;;;;;;;;;5032270;28;21724;-76
2022/05/07 14:44:06;;;;;;;2.10;1.90;;;;;;;;;;5032803;28;20183;-77
2022/05/07 14:46:32;;;;;;;2.00;1.80;;;;;;;;;;5031679;28;20771;-76
2022/05/07 14:48:59;;;;;;;3.73;2.10;;;;;;;;;;5027798;28;20248;-79
2022/05/07 14:51:27;;;;;;;1.83;1.73;;;;;;;;;;5028120;28;20522;-78
2022/05/07 14:53:53;;;;;;;3.87;2.00;;;;;;;;;;5033163;28;20225;-79
2022/05/07 14:56:20;;;;;;;2.80;1.90;;;;;;;;;;5028553;28;20203;-78
2022/05/07 14:58:47;;;;;;;1.90;1.70;;;;;;;;;;5017382;28;20205;-79
2022/05/07 15:01:13;;;;;;;2.30;1.77;;;;;;;;;;5025671;28;20273;-79
2022/05/07 15:03:40;;;;;;;2.03;1.50;;;;;;;;;;5029635;28;20175;-79
2022/05/07 15:06:08;;;;;;;1.90;1.73;;;;;;;;;;5034113;28;20220;-79
2022/05/07 15:11:20;;;;;;;4.50;1.70;;;;;;;;;;5022367;28;20183;-80
2022/05/07 15:13:46;;;;;;;2.20;1.70;;;;;;;;;;5022439;28;20180;-79
2022/05/07 15:16:13;;;;;;;2.57;1.73;;;;;;;;;;5030442;28;20209;-79
2022/05/07 15:18:39;;;;;;;3.50;1.70;;;;;;;;;;5032895;28;20253;-80
2022/05/07 15:21:05;;;;;;;2.13;1.70;;;;;;;;;;5033107;28;20207;-80
2022/05/07 15:23:32;;;;;;;1.93;1.60;;;;;;;;;;5020604;28;20190;-80
2022/05/07 15:25:58;;;;;;;3.10;1.80;;;;;;;;;;5026048;28;20200;-79
2022/05/07 15:28:24;;;;;;;1.90;1.70;;;;;;;;;;5019541;28;20205;-79
2022/05/07 15:30:51;;;;;;;2.30;1.80;;;;;;;;;;5024937;28;20255;-79
2022/05/07 15:38:50;;;;;;;3.67;1.90;;;;;;;;;;5028036;28;20286;-79
2022/05/07 15:41:17;;;;;;;3.20;1.77;;;;;;;;;;5031587;28;20211;-79